createdAt,value
2018-10-09T00:04:02.365Z,19.10
2018-10-09T00:08:43.548Z,27.37
2018-10-09T00:13:23.543Z,20.43
2018-10-09T00:18:03.393Z,17.27
2018-10-09T00:22:43.432Z,18.80
2018-10-09T00:27:23.823Z,19.70
2018-10-09T00:32:03.728Z,17.37
2018-10-09T00:36:43.744Z,21.63
2018-10-09T00:41:24.398Z,13.23
2018-10-09T00:46:04.595Z,16.00
2018-10-09T00:50:46.038Z,15.03
2018-10-09T00:55:25.676Z,16.37
2018-10-09T01:00:06.744Z,22.60
2018-10-09T01:04:47.336Z,17.83
2018-10-09T01:09:27.221Z,16.43
2018-10-09T01:14:07.176Z,16.97
2018-10-09T01:18:47.864Z,18.13
2018-10-09T01:23:27.855Z,19.17
2018-10-09T01:28:08.675Z,19.13
2018-10-09T01:32:48.743Z,34.20
2018-10-09T01:37:29.267Z,17.50
2018-10-09T01:42:09.247Z,18.47
2018-10-09T01:46:49.792Z,17.63
2018-10-09T01:51:31.413Z,16.60
2018-10-09T01:56:11.443Z,21.77
2018-10-09T02:00:52.247Z,32.07
2018-10-09T02:05:32.751Z,17.90
2018-10-09T02:10:12.555Z,27.57
2018-10-09T02:14:52.394Z,20.83
2018-10-09T02:19:32.423Z,20.70
2018-10-09T02:24:13.235Z,23.43
2018-10-09T02:28:54.612Z,19.97
2018-10-09T02:33:35.660Z,23.30
2018-10-09T02:38:18.720Z,20.43
2018-10-09T02:43:00.364Z,22.40
2018-10-09T02:47:40.054Z,26.77
2018-10-09T02:52:23.036Z,22.83
2018-10-09T02:57:04.155Z,19.43
2018-10-09T03:01:44.122Z,18.80
2018-10-09T03:06:25.205Z,17.13
2018-10-09T03:11:06.168Z,17.57
2018-10-09T03:15:46.868Z,18.80
2018-10-09T03:20:27.436Z,23.10
2018-10-09T03:25:08.629Z,28.73
2018-10-09T03:29:50.551Z,26.10
2018-10-09T03:34:31.848Z,20.90
2018-10-09T03:39:14.367Z,17.57
2018-10-09T03:43:55.423Z,21.97
2018-10-09T03:48:36.452Z,18.37
2018-10-09T03:53:16.478Z,18.63
2018-10-09T03:57:56.354Z,19.50
2018-10-09T04:02:36.247Z,24.73
2018-10-09T04:07:16.378Z,23.07
2018-10-09T04:11:56.497Z,21.53
2018-10-09T04:16:36.323Z,17.20
2018-10-09T04:21:16.439Z,17.00
2018-10-09T04:25:56.919Z,17.60
2018-10-09T04:30:36.859Z,18.40
2018-10-09T04:35:17.036Z,19.23
2018-10-09T04:39:57.123Z,20.93
2018-10-09T04:44:36.995Z,22.50
2018-10-09T04:49:17.695Z,19.40
2018-10-09T04:53:58.417Z,22.10
2018-10-09T04:58:39.919Z,22.03
2018-10-09T05:03:22.703Z,21.50
2018-10-09T05:08:03.188Z,20.30
2018-10-09T05:12:43.656Z,19.57
2018-10-09T05:17:24.736Z,23.30
2018-10-09T05:22:04.748Z,19.47
2018-10-09T05:26:44.514Z,19.20
2018-10-09T05:31:24.545Z,17.57
2018-10-09T05:36:05.421Z,20.40
2018-10-09T05:40:45.423Z,20.43
2018-10-09T05:45:25.695Z,17.97
2018-10-09T05:50:06.819Z,17.90
2018-10-09T05:54:47.191Z,17.93
2018-10-09T05:59:27.032Z,17.10
2018-10-09T06:04:07.078Z,17.70
2018-10-09T06:08:46.979Z,19.53
2018-10-09T06:13:27.123Z,20.50
2018-10-09T06:18:07.311Z,20.73
2018-10-09T06:22:48.595Z,20.27
2018-10-09T06:27:28.827Z,21.03
2018-10-09T06:32:08.601Z,18.30
2018-10-09T06:36:49.190Z,18.97
2018-10-09T06:41:30.213Z,18.70
2018-10-09T06:46:10.670Z,21.63
2018-10-09T06:50:51.119Z,21.33
2018-10-09T06:55:31.249Z,18.53
2018-10-09T07:00:13.144Z,17.40
2018-10-09T07:04:53.388Z,15.40
2018-10-09T07:09:33.513Z,15.53
2018-10-09T07:14:13.258Z,15.20
2018-10-09T07:18:53.851Z,14.35
2018-10-09T07:23:33.696Z,13.38
2018-10-09T07:28:15.023Z,11.65
2018-10-09T07:32:54.861Z,11.15
2018-10-09T07:37:36.651Z,10.65
2018-10-09T07:42:17.892Z,10.58
2018-10-09T07:46:58.715Z,10.50
2018-10-09T07:51:39.382Z,10.93
2018-10-09T07:56:19.425Z,10.53
2018-10-09T08:00:59.557Z,10.58
2018-10-09T08:05:39.312Z,10.70
2018-10-09T08:10:20.375Z,10.90
2018-10-09T08:15:01.261Z,10.72
2018-10-09T08:19:41.457Z,9.88
2018-10-09T08:24:21.416Z,10.10
2018-10-09T08:29:02.351Z,10.75
2018-10-09T08:33:42.770Z,9.78
2018-10-09T08:38:22.523Z,11.20
2018-10-09T08:43:03.343Z,14.38
2018-10-09T08:47:44.842Z,12.35
2018-10-09T08:52:24.808Z,14.78
2018-10-09T08:57:06.024Z,16.50
2018-10-09T09:01:46.503Z,16.10
2018-10-09T09:06:26.611Z,16.50
2018-10-09T09:11:06.649Z,17.62
2018-10-09T09:15:46.772Z,17.85
2018-10-09T09:20:27.781Z,18.25
2018-10-09T09:25:08.368Z,18.92
2018-10-09T09:29:48.235Z,18.75
2018-10-09T09:34:28.152Z,19.40
2018-10-09T09:39:09.450Z,19.55
2018-10-09T09:43:49.611Z,18.48
2018-10-09T09:48:30.655Z,19.65
2018-10-09T09:53:10.697Z,20.20
2018-10-09T09:57:52.787Z,19.35
2018-10-09T10:02:33.693Z,18.95
2018-10-09T10:07:14.621Z,20.05
2018-10-09T10:11:55.228Z,18.75
2018-10-09T10:16:36.201Z,17.48
2018-10-09T10:21:16.197Z,19.77
2018-10-09T10:25:56.798Z,18.65
2018-10-09T10:30:38.087Z,18.95
2018-10-09T10:35:20.655Z,18.92
2018-10-09T10:40:01.304Z,19.25
2018-10-09T10:44:42.205Z,18.45
2018-10-09T10:49:22.231Z,17.37
2018-10-09T10:54:04.490Z,18.17
2018-10-09T10:58:46.337Z,16.67
2018-10-09T11:03:28.023Z,17.17
2018-10-09T11:08:08.201Z,17.37
2018-10-09T11:12:49.381Z,16.82
2018-10-09T11:17:30.185Z,17.62
2018-10-09T11:22:10.736Z,17.37
2018-10-09T11:26:51.809Z,15.70
2018-10-09T11:31:31.872Z,14.33
2018-10-09T11:36:12.924Z,13.93
2018-10-09T11:40:53.629Z,13.65
2018-10-09T11:45:33.648Z,13.18
2018-10-09T11:50:15.424Z,12.63
2018-10-09T11:54:55.080Z,12.60
2018-10-09T11:59:35.498Z,13.40
2018-10-09T12:04:16.245Z,12.33
2018-10-09T12:08:56.322Z,11.88
2018-10-09T12:13:36.728Z,11.40
2018-10-09T12:18:17.376Z,10.72
2018-10-09T12:22:58.353Z,12.53
2018-10-09T12:27:38.148Z,11.33
2018-10-09T12:32:20.999Z,11.78
2018-10-09T12:37:01.060Z,11.90
2018-10-09T12:41:40.968Z,13.28
2018-10-09T12:46:25.864Z,13.25
2018-10-09T12:51:07.256Z,13.45
2018-10-09T12:55:47.365Z,14.75
2018-10-09T13:00:27.252Z,15.40
2018-10-09T13:05:07.232Z,15.88
2018-10-09T13:09:46.980Z,14.93
2018-10-09T13:14:26.767Z,14.10
2018-10-09T13:19:23.225Z,13.83
2018-10-09T13:24:03.238Z,14.05
2018-10-09T13:28:43.516Z,12.75
2018-10-09T13:33:23.316Z,12.30
2018-10-09T13:38:03.322Z,12.80
2018-10-09T13:42:43.904Z,13.32
2018-10-09T13:47:23.755Z,13.45
2018-10-09T13:52:03.700Z,13.18
2018-10-09T13:56:43.617Z,13.80
2018-10-09T14:01:23.542Z,14.75
2018-10-09T14:06:03.342Z,14.15
2018-10-09T14:10:43.229Z,13.08
2018-10-09T14:15:23.168Z,13.68
2018-10-09T14:20:03.136Z,13.53
2018-10-09T14:24:43.138Z,13.18
2018-10-09T14:29:22.835Z,13.70
2018-10-09T14:34:02.776Z,14.70
2018-10-09T14:38:42.762Z,14.25
2018-10-09T14:43:22.760Z,12.55
2018-10-09T14:48:02.692Z,11.78
2018-10-09T14:52:42.658Z,13.40
2018-10-09T14:57:23.358Z,12.03
2018-10-09T15:02:03.204Z,12.23
2018-10-09T15:06:43.196Z,12.35
2018-10-09T15:11:23.453Z,13.15
2018-10-09T15:16:03.320Z,13.20
2018-10-09T15:20:43.348Z,12.58
2018-10-09T15:25:23.215Z,12.80
2018-10-09T15:30:03.201Z,15.50
2018-10-09T15:34:43.267Z,14.45
2018-10-09T15:39:23.200Z,14.18
2018-10-09T15:44:02.976Z,14.47
2018-10-09T15:48:42.809Z,14.68
2018-10-09T15:53:22.573Z,15.53
2018-10-09T15:58:02.437Z,39.00
2018-10-09T16:02:44.905Z,21.50
2018-10-09T16:12:40.365Z,37.83
2018-10-09T16:17:20.101Z,21.33
2018-10-09T16:21:59.932Z,20.65
2018-10-09T16:26:40.100Z,34.40
2018-10-09T16:31:19.992Z,19.15
2018-10-09T16:35:59.851Z,18.00
2018-10-09T16:40:39.703Z,17.20
2018-10-09T16:45:20.349Z,19.23
2018-10-09T16:50:00.244Z,20.17
2018-10-09T16:54:40.661Z,23.05
2018-10-09T16:59:20.584Z,22.05
2018-10-09T17:04:00.408Z,27.58
2018-10-09T17:08:40.321Z,27.85
2018-10-09T17:13:20.145Z,24.23
2018-10-09T17:17:59.881Z,24.27
2018-10-09T17:22:39.588Z,22.75
2018-10-09T17:27:19.415Z,23.40
2018-10-09T17:31:59.170Z,25.52
2018-10-09T17:36:39.137Z,32.55
2018-10-09T17:41:19.212Z,31.60
2018-10-09T17:45:59.380Z,38.08
2018-10-09T17:50:40.998Z,198.53
2018-10-09T17:55:21.053Z,214.38
2018-10-09T18:00:04.744Z,127.70
2018-10-09T18:04:48.645Z,45.45
2018-10-09T18:09:28.699Z,33.90
2018-10-09T18:14:09.340Z,39.70
2018-10-09T18:18:48.960Z,34.50
2018-10-09T18:23:29.156Z,40.60
2018-10-09T18:28:09.311Z,43.48
2018-10-09T18:32:49.453Z,33.53
2018-10-09T18:37:29.068Z,38.50
2018-10-09T18:42:09.081Z,31.42
2018-10-09T18:46:48.964Z,36.63
2018-10-09T18:51:29.442Z,30.80
2018-10-09T18:56:09.451Z,56.85
2018-10-09T19:00:49.933Z,52.83
2018-10-09T19:05:29.861Z,54.15
2018-10-09T19:10:10.618Z,33.83
2018-10-09T19:14:50.760Z,35.50
2018-10-09T19:19:30.600Z,33.92
2018-10-09T19:24:10.648Z,32.58
2018-10-09T19:28:50.452Z,38.40
2018-10-09T19:33:30.309Z,31.87
2018-10-09T19:38:11.577Z,30.10
2018-10-09T19:42:51.481Z,31.07
2018-10-09T19:47:35.172Z,47.33
2018-10-09T19:52:14.935Z,34.48
2018-10-09T19:56:55.046Z,36.33
2018-10-09T20:01:34.956Z,30.57
2018-10-09T20:06:15.465Z,30.25
2018-10-09T20:10:55.675Z,31.30
2018-10-09T20:15:36.536Z,28.98
2018-10-09T20:20:16.975Z,29.52
2018-10-09T20:24:57.099Z,27.52
2018-10-09T20:29:37.612Z,26.55
2018-10-09T20:34:18.645Z,26.73
2018-10-09T20:39:00.235Z,30.17
2018-10-09T20:43:41.966Z,30.20
2018-10-09T20:48:22.323Z,31.70
2018-10-09T20:53:03.144Z,36.33
2018-10-09T20:57:42.824Z,29.67
2018-10-09T21:02:23.116Z,34.60
2018-10-09T21:07:03.580Z,38.48
2018-10-09T21:11:43.755Z,28.45
2018-10-09T21:16:24.236Z,28.25
2018-10-09T21:21:04.575Z,30.32
2018-10-09T21:25:45.053Z,30.10
2018-10-09T21:30:24.686Z,30.32
2018-10-09T21:35:06.625Z,29.07
2018-10-09T21:39:47.107Z,34.60
2018-10-09T21:44:27.133Z,34.70
2018-10-09T21:49:07.380Z,37.25
2018-10-09T21:53:47.435Z,49.93
2018-10-09T21:58:27.762Z,33.45
2018-10-09T22:03:07.589Z,30.17
2018-10-09T22:07:47.640Z,38.28
2018-10-09T22:12:28.716Z,38.55
2018-10-09T22:17:09.724Z,34.40
2018-10-09T22:21:49.689Z,33.95
2018-10-09T22:26:29.538Z,30.08
2018-10-09T22:31:10.329Z,29.42
2018-10-09T22:35:50.179Z,32.13
2018-10-09T22:40:30.100Z,38.63
2018-10-09T22:45:11.501Z,34.40
2018-10-09T22:49:52.112Z,30.05
2018-10-09T22:54:32.084Z,36.40
2018-10-09T22:59:13.040Z,35.98
2018-10-09T23:03:54.294Z,43.48
2018-10-09T23:08:34.437Z,37.63
2018-10-09T23:13:15.348Z,41.60
2018-10-09T23:17:55.085Z,48.63
2018-10-09T23:22:34.752Z,42.47
2018-10-09T23:27:15.683Z,38.05
2018-10-09T23:31:56.897Z,41.85
2018-10-09T23:36:36.921Z,43.73
2018-10-09T23:41:17.660Z,41.18
2018-10-09T23:45:57.636Z,43.95
2018-10-09T23:50:39.509Z,48.65
2018-10-09T23:55:20.547Z,63.17
